Startpagina
METAR-TAF:

METAR-TAF

Vliegvelden :

Schaffen

Diest, België

breedte: 51-00N, lengte: 005-04E, hoogte: 30 m

Actueel weer

Dit bericht is 18 uur en het 14 minuten geleden gemaakt, om 19:55 UTC
Wind 8 kt uit het zuidzuidwesten
Temperatuur 5°C
Vochtigheid 87%
Druk 1033 hPa
Zicht: 4600 m
nevel

METAR: EBDT 281955Z AUTO 21008KT 4600 BR OVC007/// 05/03 Q1033 GRN

Tijdstip: 15:09 (14:09 UTC)

Verwachting

Dit bericht is 28 uur en het 43 minuten geleden gemaakt, om 09:26 UTC
Verwachting geldig van 28 om 10 UTC tot 28 om 19 UTC
Wind 6 kt uit het westen
Zicht 10 km of meer
Weinig wolken op 14000 ft
Kans 30% :
Tijdelijke
van 28 om 10 UTC tot 28 om 16 UTC
Zicht: 7000 m
Verspreide wolken op 700 ft
Wijzigt naar
van 28 om 13 UTC tot 28 om 15 UTC
Verspreide wolken op 1600 ft

TAF: EBDT 280926Z 2810/2819 26006KT 9999 FEW140 PROB30 TEMPO 2810/2816 7000 SCT007 BECMG 2813/2815 SCT016

Waarnemingen en weersverwachtingen van meer dan 4000 vliegvelden (METAR en TAF).

De beschikbare stations zijn de gele en rode punten op de kaart.

Ga met uw muis naar het station om de naam te zien.

Klik dan om waarnemingen en weersverwachtingen te zien.

kaart wijzigen: klik op de groene knoppen met een zwart kruis om in te zoomen, op de groene knop met een streepje om uit te zoomen of op de groene pijlen voor aangrenzende kaarten.


METAR-TAF: